sensor_id;sensor_type;location;lat;lon;timestamp;temperature;humidity
16823;DHT22;8528;49.976;11.858;2023-05-07T00:00:44;8.20;99.90
16823;DHT22;8528;49.976;11.858;2023-05-07T00:03:11;8.10;99.90
16823;DHT22;8528;49.976;11.858;2023-05-07T00:05:39;8.20;99.90
16823;DHT22;8528;49.976;11.858;2023-05-07T00:08:08;8.10;99.90
16823;DHT22;8528;49.976;11.858;2023-05-07T00:10:34;8.10;99.90
16823;DHT22;8528;49.976;11.858;2023-05-07T00:13:01;8.10;99.90
16823;DHT22;8528;49.976;11.858;2023-05-07T00:15:28;8.10;99.90
16823;DHT22;8528;49.976;11.858;2023-05-07T00:17:55;8.10;99.90
16823;DHT22;8528;49.976;11.858;2023-05-07T00:20:22;8.00;99.90
16823;DHT22;8528;49.976;11.858;2023-05-07T00:22:49;8.00;99.90
16823;DHT22;8528;49.976;11.858;2023-05-07T00:25:15;8.00;99.90
16823;DHT22;8528;49.976;11.858;2023-05-07T00:27:42;8.00;99.90
16823;DHT22;8528;49.976;11.858;2023-05-07T00:30:13;8.00;99.90
16823;DHT22;8528;49.976;11.858;2023-05-07T00:32:40;7.90;99.90
16823;DHT22;8528;49.976;11.858;2023-05-07T00:35:07;8.00;99.90
16823;DHT22;8528;49.976;11.858;2023-05-07T00:37:34;8.00;99.90
16823;DHT22;8528;49.976;11.858;2023-05-07T00:40:01;7.90;99.90
16823;DHT22;8528;49.976;11.858;2023-05-07T00:42:31;7.90;99.90
16823;DHT22;8528;49.976;11.858;2023-05-07T00:44:59;7.90;99.90
16823;DHT22;8528;49.976;11.858;2023-05-07T00:47:26;7.90;99.90
16823;DHT22;8528;49.976;11.858;2023-05-07T00:49:52;7.80;99.90
16823;DHT22;8528;49.976;11.858;2023-05-07T00:52:21;7.80;99.90
16823;DHT22;8528;49.976;11.858;2023-05-07T00:55:04;7.80;99.90
16823;DHT22;8528;49.976;11.858;2023-05-07T00:57:36;7.80;99.90
16823;DHT22;8528;49.976;11.858;2023-05-07T01:00:05;7.80;99.90
16823;DHT22;8528;49.976;11.858;2023-05-07T01:02:32;7.80;99.90
16823;DHT22;8528;49.976;11.858;2023-05-07T01:05:05;7.80;99.90
16823;DHT22;8528;49.976;11.858;2023-05-07T01:07:34;7.80;99.90
16823;DHT22;8528;49.976;11.858;2023-05-07T01:10:02;7.70;99.90
16823;DHT22;8528;49.976;11.858;2023-05-07T01:12:29;7.70;99.90
16823;DHT22;8528;49.976;11.858;2023-05-07T01:14:57;7.70;99.90
16823;DHT22;8528;49.976;11.858;2023-05-07T01:17:25;7.70;99.90
16823;DHT22;8528;49.976;11.858;2023-05-07T01:19:51;7.60;99.90
16823;DHT22;8528;49.976;11.858;2023-05-07T01:22:31;7.60;99.90
16823;DHT22;8528;49.976;11.858;2023-05-07T01:24:59;7.60;99.90
16823;DHT22;8528;49.976;11.858;2023-05-07T01:27:55;7.60;99.90
16823;DHT22;8528;49.976;11.858;2023-05-07T01:30:22;7.50;99.90
16823;DHT22;8528;49.976;11.858;2023-05-07T01:32:53;7.60;99.90
16823;DHT22;8528;49.976;11.858;2023-05-07T01:35:27;7.50;99.90
16823;DHT22;8528;49.976;11.858;2023-05-07T01:37:55;7.50;99.90
16823;DHT22;8528;49.976;11.858;2023-05-07T01:40:30;7.50;99.90
16823;DHT22;8528;49.976;11.858;2023-05-07T01:42:57;7.50;99.90
16823;DHT22;8528;49.976;11.858;2023-05-07T01:45:24;7.50;99.90
16823;DHT22;8528;49.976;11.858;2023-05-07T01:47:53;7.50;99.90
16823;DHT22;8528;49.976;11.858;2023-05-07T01:50:20;7.50;99.90
16823;DHT22;8528;49.976;11.858;2023-05-07T01:52:50;7.40;99.90
16823;DHT22;8528;49.976;11.858;2023-05-07T01:55:17;7.50;99.90
16823;DHT22;8528;49.976;11.858;2023-05-07T01:57:44;7.40;99.90
16823;DHT22;8528;49.976;11.858;2023-05-07T02:00:11;7.30;99.90
16823;DHT22;8528;49.976;11.858;2023-05-07T02:02:38;7.30;99.90
16823;DHT22;8528;49.976;11.858;2023-05-07T02:05:06;7.20;99.90
16823;DHT22;8528;49.976;11.858;2023-05-07T02:07:46;7.20;99.90
16823;DHT22;8528;49.976;11.858;2023-05-07T02:10:13;7.20;99.90
16823;DHT22;8528;49.976;11.858;2023-05-07T02:12:39;7.10;99.90
16823;DHT22;8528;49.976;11.858;2023-05-07T02:15:06;7.10;99.90
16823;DHT22;8528;49.976;11.858;2023-05-07T02:17:33;7.00;99.90
16823;DHT22;8528;49.976;11.858;2023-05-07T02:20:00;7.00;99.90
16823;DHT22;8528;49.976;11.858;2023-05-07T02:22:27;7.00;99.90
16823;DHT22;8528;49.976;11.858;2023-05-07T02:24:53;7.00;99.90
16823;DHT22;8528;49.976;11.858;2023-05-07T02:27:20;7.00;99.90
16823;DHT22;8528;49.976;11.858;2023-05-07T02:29:47;7.00;99.90
16823;DHT22;8528;49.976;11.858;2023-05-07T02:32:14;7.00;99.90
16823;DHT22;8528;49.976;11.858;2023-05-07T02:34:41;6.90;99.90
16823;DHT22;8528;49.976;11.858;2023-05-07T02:37:27;7.00;99.90
16823;DHT22;8528;49.976;11.858;2023-05-07T02:43:13;6.90;99.90
16823;DHT22;8528;49.976;11.858;2023-05-07T02:45:40;6.90;99.90
16823;DHT22;8528;49.976;11.858;2023-05-07T02:48:07;6.90;99.90
16823;DHT22;8528;49.976;11.858;2023-05-07T02:50:34;6.90;99.90
16823;DHT22;8528;49.976;11.858;2023-05-07T02:53:01;6.90;99.90
16823;DHT22;8528;49.976;11.858;2023-05-07T02:55:28;7.00;99.90
16823;DHT22;8528;49.976;11.858;2023-05-07T02:57:55;6.90;99.90
16823;DHT22;8528;49.976;11.858;2023-05-07T03:00:22;6.90;99.90
16823;DHT22;8528;49.976;11.858;2023-05-07T03:02:48;6.80;99.90
16823;DHT22;8528;49.976;11.858;2023-05-07T03:05:15;6.80;99.90
16823;DHT22;8528;49.976;11.858;2023-05-07T03:07:42;6.80;99.90
16823;DHT22;8528;49.976;11.858;2023-05-07T03:10:11;6.70;99.90
16823;DHT22;8528;49.976;11.858;2023-05-07T03:12:39;6.70;99.90
16823;DHT22;8528;49.976;11.858;2023-05-07T03:15:06;6.60;99.90
16823;DHT22;8528;49.976;11.858;2023-05-07T03:17:33;6.60;99.90
16823;DHT22;8528;49.976;11.858;2023-05-07T03:20:00;6.60;99.90
16823;DHT22;8528;49.976;11.858;2023-05-07T03:22:26;6.60;99.90
16823;DHT22;8528;49.976;11.858;2023-05-07T03:24:53;6.60;99.90
16823;DHT22;8528;49.976;11.858;2023-05-07T03:27:20;6.60;99.90
16823;DHT22;8528;49.976;11.858;2023-05-07T03:29:47;6.60;99.90
16823;DHT22;8528;49.976;11.858;2023-05-07T03:32:14;6.60;99.90
16823;DHT22;8528;49.976;11.858;2023-05-07T03:34:41;6.60;99.90
16823;DHT22;8528;49.976;11.858;2023-05-07T03:37:07;6.60;99.90
16823;DHT22;8528;49.976;11.858;2023-05-07T03:39:34;6.50;99.90
16823;DHT22;8528;49.976;11.858;2023-05-07T03:42:02;6.50;99.90
16823;DHT22;8528;49.976;11.858;2023-05-07T03:44:29;6.50;99.90
16823;DHT22;8528;49.976;11.858;2023-05-07T03:46:55;6.60;99.90
16823;DHT22;8528;49.976;11.858;2023-05-07T03:49:22;6.60;99.90
16823;DHT22;8528;49.976;11.858;2023-05-07T03:51:49;6.60;99.90
16823;DHT22;8528;49.976;11.858;2023-05-07T03:54:16;6.60;99.90
16823;DHT22;8528;49.976;11.858;2023-05-07T03:56:42;6.70;99.90
16823;DHT22;8528;49.976;11.858;2023-05-07T03:59:09;6.70;99.90
16823;DHT22;8528;49.976;11.858;2023-05-07T04:01:35;6.80;99.90
16823;DHT22;8528;49.976;11.858;2023-05-07T04:04:02;6.80;99.90
16823;DHT22;8528;49.976;11.858;2023-05-07T04:06:31;6.90;99.90
16823;DHT22;8528;49.976;11.858;2023-05-07T04:08:58;6.90;99.90
16823;DHT22;8528;49.976;11.858;2023-05-07T04:11:24;7.00;99.90
16823;DHT22;8528;49.976;11.858;2023-05-07T04:13:51;7.10;99.90
16823;DHT22;8528;49.976;11.858;2023-05-07T04:16:18;7.10;99.90
16823;DHT22;8528;49.976;11.858;2023-05-07T04:18:45;7.30;99.90
16823;DHT22;8528;49.976;11.858;2023-05-07T04:21:19;7.50;99.90
16823;DHT22;8528;49.976;11.858;2023-05-07T04:23:47;7.60;99.90
16823;DHT22;8528;49.976;11.858;2023-05-07T04:26:14;7.80;99.90
16823;DHT22;8528;49.976;11.858;2023-05-07T04:28:42;8.00;99.90
16823;DHT22;8528;49.976;11.858;2023-05-07T04:31:08;8.20;99.90
16823;DHT22;8528;49.976;11.858;2023-05-07T04:33:35;8.40;99.90
16823;DHT22;8528;49.976;11.858;2023-05-07T04:36:03;8.50;99.90
16823;DHT22;8528;49.976;11.858;2023-05-07T04:38:31;8.70;99.90
16823;DHT22;8528;49.976;11.858;2023-05-07T04:41:03;8.80;99.90
16823;DHT22;8528;49.976;11.858;2023-05-07T04:43:30;8.90;99.90
16823;DHT22;8528;49.976;11.858;2023-05-07T04:45:56;9.00;99.90
16823;DHT22;8528;49.976;11.858;2023-05-07T04:48:23;9.00;99.90
16823;DHT22;8528;49.976;11.858;2023-05-07T04:50:50;9.10;99.90
16823;DHT22;8528;49.976;11.858;2023-05-07T04:53:35;9.20;99.90
16823;DHT22;8528;49.976;11.858;2023-05-07T04:56:02;9.20;99.90
16823;DHT22;8528;49.976;11.858;2023-05-07T04:58:29;9.40;99.90
16823;DHT22;8528;49.976;11.858;2023-05-07T05:00:58;9.60;99.90
16823;DHT22;8528;49.976;11.858;2023-05-07T05:03:26;9.80;99.90
16823;DHT22;8528;49.976;11.858;2023-05-07T05:05:53;9.90;99.90
16823;DHT22;8528;49.976;11.858;2023-05-07T05:08:19;9.90;99.90
16823;DHT22;8528;49.976;11.858;2023-05-07T05:10:55;10.00;99.90
16823;DHT22;8528;49.976;11.858;2023-05-07T05:13:21;10.00;99.90
16823;DHT22;8528;49.976;11.858;2023-05-07T05:15:48;10.10;99.90
16823;DHT22;8528;49.976;11.858;2023-05-07T05:18:16;10.20;99.90
16823;DHT22;8528;49.976;11.858;2023-05-07T05:20:43;10.20;99.90
16823;DHT22;8528;49.976;11.858;2023-05-07T05:23:10;10.30;99.90
16823;DHT22;8528;49.976;11.858;2023-05-07T05:25:36;10.40;99.90
16823;DHT22;8528;49.976;11.858;2023-05-07T05:28:03;10.50;99.90
16823;DHT22;8528;49.976;11.858;2023-05-07T05:30:30;10.50;99.90
16823;DHT22;8528;49.976;11.858;2023-05-07T05:32:57;10.60;99.90
16823;DHT22;8528;49.976;11.858;2023-05-07T05:35:24;10.60;99.90
16823;DHT22;8528;49.976;11.858;2023-05-07T05:38:08;10.50;99.90
16823;DHT22;8528;49.976;11.858;2023-05-07T05:40:35;10.50;99.90
16823;DHT22;8528;49.976;11.858;2023-05-07T05:43:01;10.60;99.90
16823;DHT22;8528;49.976;11.858;2023-05-07T05:45:28;10.70;99.90
16823;DHT22;8528;49.976;11.858;2023-05-07T05:47:56;10.70;99.90
16823;DHT22;8528;49.976;11.858;2023-05-07T05:50:23;10.80;99.90
16823;DHT22;8528;49.976;11.858;2023-05-07T05:52:50;10.90;99.90
16823;DHT22;8528;49.976;11.858;2023-05-07T05:55:17;11.20;99.90
16823;DHT22;8528;49.976;11.858;2023-05-07T05:57:43;11.40;99.90
16823;DHT22;8528;49.976;11.858;2023-05-07T06:00:11;12.00;99.90
16823;DHT22;8528;49.976;11.858;2023-05-07T06:02:39;12.80;99.90
16823;DHT22;8528;49.976;11.858;2023-05-07T06:05:06;13.20;99.90
16823;DHT22;8528;49.976;11.858;2023-05-07T06:07:33;14.20;99.90
16823;DHT22;8528;49.976;11.858;2023-05-07T06:10:01;15.30;99.90
16823;DHT22;8528;49.976;11.858;2023-05-07T06:12:28;16.00;99.90
16823;DHT22;8528;49.976;11.858;2023-05-07T06:14:54;16.60;99.90
16823;DHT22;8528;49.976;11.858;2023-05-07T06:17:21;17.40;99.90
16823;DHT22;8528;49.976;11.858;2023-05-07T06:19:48;18.20;99.90
16823;DHT22;8528;49.976;11.858;2023-05-07T06:22:15;19.20;99.90
16823;DHT22;8528;49.976;11.858;2023-05-07T06:24:42;20.10;99.90
16823;DHT22;8528;49.976;11.858;2023-05-07T06:27:08;20.10;97.50
16823;DHT22;8528;49.976;11.858;2023-05-07T06:29:35;20.70;96.30
16823;DHT22;8528;49.976;11.858;2023-05-07T06:35:22;22.20;91.40
16823;DHT22;8528;49.976;11.858;2023-05-07T06:37:49;22.80;90.00
16823;DHT22;8528;49.976;11.858;2023-05-07T06:40:26;23.40;86.50
16823;DHT22;8528;49.976;11.858;2023-05-07T06:42:53;24.10;81.20
16823;DHT22;8528;49.976;11.858;2023-05-07T06:45:20;24.50;75.80
16823;DHT22;8528;49.976;11.858;2023-05-07T06:47:47;24.30;72.70
16823;DHT22;8528;49.976;11.858;2023-05-07T06:50:14;23.80;73.80
16823;DHT22;8528;49.976;11.858;2023-05-07T06:53:15;23.70;74.20
16823;DHT22;8528;49.976;11.858;2023-05-07T06:55:42;24.20;70.50
16823;DHT22;8528;49.976;11.858;2023-05-07T06:58:08;24.90;68.40
16823;DHT22;8528;49.976;11.858;2023-05-07T07:00:35;26.00;66.20
16823;DHT22;8528;49.976;11.858;2023-05-07T07:03:02;26.40;63.10
16823;DHT22;8528;49.976;11.858;2023-05-07T07:05:28;27.00;59.70
16823;DHT22;8528;49.976;11.858;2023-05-07T07:07:55;27.50;57.30
16823;DHT22;8528;49.976;11.858;2023-05-07T07:10:22;27.60;55.80
16823;DHT22;8528;49.976;11.858;2023-05-07T07:12:49;28.20;55.50
16823;DHT22;8528;49.976;11.858;2023-05-07T07:15:16;28.70;54.80
16823;DHT22;8528;49.976;11.858;2023-05-07T07:17:43;29.20;52.40
16823;DHT22;8528;49.976;11.858;2023-05-07T07:20:10;29.90;50.50
16823;DHT22;8528;49.976;11.858;2023-05-07T07:22:37;30.30;49.30
16823;DHT22;8528;49.976;11.858;2023-05-07T07:25:04;30.40;48.90
16823;DHT22;8528;49.976;11.858;2023-05-07T07:27:31;30.10;48.50
16823;DHT22;8528;49.976;11.858;2023-05-07T07:29:58;29.70;49.70
16823;DHT22;8528;49.976;11.858;2023-05-07T07:32:25;29.30;49.90
16823;DHT22;8528;49.976;11.858;2023-05-07T07:34:52;28.80;51.10
16823;DHT22;8528;49.976;11.858;2023-05-07T07:37:21;27.70;50.80
16823;DHT22;8528;49.976;11.858;2023-05-07T07:39:48;26.00;53.40
16823;DHT22;8528;49.976;11.858;2023-05-07T07:42:15;25.40;54.80
16823;DHT22;8528;49.976;11.858;2023-05-07T07:44:41;25.20;55.20
16823;DHT22;8528;49.976;11.858;2023-05-07T07:47:08;25.40;56.20
16823;DHT22;8528;49.976;11.858;2023-05-07T07:49:40;25.60;56.40
16823;DHT22;8528;49.976;11.858;2023-05-07T07:52:07;25.50;57.60
16823;DHT22;8528;49.976;11.858;2023-05-07T07:54:46;25.30;57.50
16823;DHT22;8528;49.976;11.858;2023-05-07T07:57:13;25.20;57.10
16823;DHT22;8528;49.976;11.858;2023-05-07T07:59:47;24.80;57.40
16823;DHT22;8528;49.976;11.858;2023-05-07T08:02:14;24.70;59.10
16823;DHT22;8528;49.976;11.858;2023-05-07T08:04:41;25.00;58.60
16823;DHT22;8528;49.976;11.858;2023-05-07T08:07:10;24.90;58.60
16823;DHT22;8528;49.976;11.858;2023-05-07T08:09:37;24.80;58.80
16823;DHT22;8528;49.976;11.858;2023-05-07T08:12:08;24.40;58.60
16823;DHT22;8528;49.976;11.858;2023-05-07T08:14:34;24.30;59.50
16823;DHT22;8528;49.976;11.858;2023-05-07T08:17:02;23.70;60.50
16823;DHT22;8528;49.976;11.858;2023-05-07T08:19:29;24.00;61.60
16823;DHT22;8528;49.976;11.858;2023-05-07T08:21:56;24.20;61.40
16823;DHT22;8528;49.976;11.858;2023-05-07T08:24:23;24.10;60.50
16823;DHT22;8528;49.976;11.858;2023-05-07T08:26:50;23.80;60.80
16823;DHT22;8528;49.976;11.858;2023-05-07T08:29:17;24.20;61.10
16823;DHT22;8528;49.976;11.858;2023-05-07T08:31:49;24.70;61.30
16823;DHT22;8528;49.976;11.858;2023-05-07T08:34:16;25.00;59.90
16823;DHT22;8528;49.976;11.858;2023-05-07T08:37:02;25.30;58.60
16823;DHT22;8528;49.976;11.858;2023-05-07T08:39:30;25.60;57.50
16823;DHT22;8528;49.976;11.858;2023-05-07T08:41:59;25.60;56.80
16823;DHT22;8528;49.976;11.858;2023-05-07T08:44:27;25.20;58.10
16823;DHT22;8528;49.976;11.858;2023-05-07T08:46:56;25.00;57.60
16823;DHT22;8528;49.976;11.858;2023-05-07T08:49:23;24.40;58.50
16823;DHT22;8528;49.976;11.858;2023-05-07T08:52:14;24.40;60.10
16823;DHT22;8528;49.976;11.858;2023-05-07T08:54:41;25.30;58.60
16823;DHT22;8528;49.976;11.858;2023-05-07T08:57:07;24.90;57.30
16823;DHT22;8528;49.976;11.858;2023-05-07T08:59:34;24.20;59.30
16823;DHT22;8528;49.976;11.858;2023-05-07T09:02:02;24.30;60.40
16823;DHT22;8528;49.976;11.858;2023-05-07T09:04:29;24.70;60.20
16823;DHT22;8528;49.976;11.858;2023-05-07T09:06:59;24.40;59.40
16823;DHT22;8528;49.976;11.858;2023-05-07T09:09:32;23.40;62.80
16823;DHT22;8528;49.976;11.858;2023-05-07T09:12:12;24.00;61.00
16823;DHT22;8528;49.976;11.858;2023-05-07T09:14:39;24.60;59.90
16823;DHT22;8528;49.976;11.858;2023-05-07T09:17:07;25.30;58.90
16823;DHT22;8528;49.976;11.858;2023-05-07T09:19:36;25.80;58.60
16823;DHT22;8528;49.976;11.858;2023-05-07T09:22:04;25.70;58.60
16823;DHT22;8528;49.976;11.858;2023-05-07T09:28:04;24.50;61.40
16823;DHT22;8528;49.976;11.858;2023-05-07T09:30:33;23.00;63.40
16823;DHT22;8528;49.976;11.858;2023-05-07T09:33:02;22.90;66.00
16823;DHT22;8528;49.976;11.858;2023-05-07T09:35:44;23.10;65.70
16823;DHT22;8528;49.976;11.858;2023-05-07T09:38:12;23.30;65.10
16823;DHT22;8528;49.976;11.858;2023-05-07T09:40:39;23.20;63.60
16823;DHT22;8528;49.976;11.858;2023-05-07T09:43:10;23.10;64.00
16823;DHT22;8528;49.976;11.858;2023-05-07T09:45:41;23.10;63.90
16823;DHT22;8528;49.976;11.858;2023-05-07T09:48:07;23.10;64.50
16823;DHT22;8528;49.976;11.858;2023-05-07T09:50:48;23.20;64.50
16823;DHT22;8528;49.976;11.858;2023-05-07T09:53:17;23.00;65.60
16823;DHT22;8528;49.976;11.858;2023-05-07T09:55:45;22.90;63.70
16823;DHT22;8528;49.976;11.858;2023-05-07T09:58:12;22.90;64.50
16823;DHT22;8528;49.976;11.858;2023-05-07T10:00:41;22.30;64.30
16823;DHT22;8528;49.976;11.858;2023-05-07T10:03:09;21.70;63.80
16823;DHT22;8528;49.976;11.858;2023-05-07T10:05:37;21.10;66.50
16823;DHT22;8528;49.976;11.858;2023-05-07T10:08:05;20.60;68.40
16823;DHT22;8528;49.976;11.858;2023-05-07T10:10:50;20.90;68.30
16823;DHT22;8528;49.976;11.858;2023-05-07T10:13:24;21.00;67.20
16823;DHT22;8528;49.976;11.858;2023-05-07T10:16:16;21.00;68.20
16823;DHT22;8528;49.976;11.858;2023-05-07T10:18:44;21.40;67.90
16823;DHT22;8528;49.976;11.858;2023-05-07T10:21:17;21.10;66.00
16823;DHT22;8528;49.976;11.858;2023-05-07T10:23:53;20.80;68.90
16823;DHT22;8528;49.976;11.858;2023-05-07T10:26:24;21.00;69.60
16823;DHT22;8528;49.976;11.858;2023-05-07T10:29:05;21.10;67.90
16823;DHT22;8528;49.976;11.858;2023-05-07T10:34:44;21.10;65.60
16823;DHT22;8528;49.976;11.858;2023-05-07T10:37:12;21.80;66.40
16823;DHT22;8528;49.976;11.858;2023-05-07T10:39:40;22.50;62.70
16823;DHT22;8528;49.976;11.858;2023-05-07T10:42:11;22.90;62.10
16823;DHT22;8528;49.976;11.858;2023-05-07T10:44:38;23.50;60.00
16823;DHT22;8528;49.976;11.858;2023-05-07T10:47:30;23.90;58.70
16823;DHT22;8528;49.976;11.858;2023-05-07T10:52:33;25.00;57.50
16823;DHT22;8528;49.976;11.858;2023-05-07T10:57:51;25.30;56.20
16823;DHT22;8528;49.976;11.858;2023-05-07T11:03:05;25.30;56.20
16823;DHT22;8528;49.976;11.858;2023-05-07T11:05:36;25.10;56.50
16823;DHT22;8528;49.976;11.858;2023-05-07T11:08:05;26.80;53.90
16823;DHT22;8528;49.976;11.858;2023-05-07T11:10:59;27.00;50.90
16823;DHT22;8528;49.976;11.858;2023-05-07T11:13:50;26.10;51.70
16823;DHT22;8528;49.976;11.858;2023-05-07T11:16:24;25.90;53.70
16823;DHT22;8528;49.976;11.858;2023-05-07T11:18:55;26.10;54.10
16823;DHT22;8528;49.976;11.858;2023-05-07T11:21:53;25.80;54.60
16823;DHT22;8528;49.976;11.858;2023-05-07T11:24:21;25.20;55.40
16823;DHT22;8528;49.976;11.858;2023-05-07T11:27:07;24.50;56.80
16823;DHT22;8528;49.976;11.858;2023-05-07T11:29:35;24.30;57.80
16823;DHT22;8528;49.976;11.858;2023-05-07T11:32:27;24.00;57.70
16823;DHT22;8528;49.976;11.858;2023-05-07T11:34:58;23.40;59.10
16823;DHT22;8528;49.976;11.858;2023-05-07T11:37:26;23.60;59.20
16823;DHT22;8528;49.976;11.858;2023-05-07T11:40:08;23.10;59.70
16823;DHT22;8528;49.976;11.858;2023-05-07T11:42:38;23.20;60.00
16823;DHT22;8528;49.976;11.858;2023-05-07T11:45:06;24.50;57.40
16823;DHT22;8528;49.976;11.858;2023-05-07T11:47:34;27.00;54.90
16823;DHT22;8528;49.976;11.858;2023-05-07T11:50:07;27.80;49.80
16823;DHT22;8528;49.976;11.858;2023-05-07T11:52:35;27.90;50.30
16823;DHT22;8528;49.976;11.858;2023-05-07T11:55:03;26.80;51.70
16823;DHT22;8528;49.976;11.858;2023-05-07T11:57:33;26.30;53.10
16823;DHT22;8528;49.976;11.858;2023-05-07T12:00:01;25.60;53.70
16823;DHT22;8528;49.976;11.858;2023-05-07T12:02:31;26.50;53.00
16823;DHT22;8528;49.976;11.858;2023-05-07T12:05:00;27.90;49.90
16823;DHT22;8528;49.976;11.858;2023-05-07T12:07:27;29.40;47.40
16823;DHT22;8528;49.976;11.858;2023-05-07T12:09:54;30.30;46.40
16823;DHT22;8528;49.976;11.858;2023-05-07T12:12:21;30.10;45.50
16823;DHT22;8528;49.976;11.858;2023-05-07T12:14:48;30.10;44.90
16823;DHT22;8528;49.976;11.858;2023-05-07T12:17:16;29.80;44.70
16823;DHT22;8528;49.976;11.858;2023-05-07T12:19:44;28.90;45.70
16823;DHT22;8528;49.976;11.858;2023-05-07T12:22:12;28.20;48.10
16823;DHT22;8528;49.976;11.858;2023-05-07T12:24:46;26.80;47.80
16823;DHT22;8528;49.976;11.858;2023-05-07T12:27:14;25.70;49.90
16823;DHT22;8528;49.976;11.858;2023-05-07T12:30:04;26.40;48.00
16823;DHT22;8528;49.976;11.858;2023-05-07T12:32:32;28.60;44.70
16823;DHT22;8528;49.976;11.858;2023-05-07T12:35:05;29.10;44.60
16823;DHT22;8528;49.976;11.858;2023-05-07T12:37:42;28.20;44.10
16823;DHT22;8528;49.976;11.858;2023-05-07T12:40:10;27.10;45.00
16823;DHT22;8528;49.976;11.858;2023-05-07T12:42:39;25.60;48.60
16823;DHT22;8528;49.976;11.858;2023-05-07T12:45:15;25.10;51.20
16823;DHT22;8528;49.976;11.858;2023-05-07T12:47:46;26.00;48.30
16823;DHT22;8528;49.976;11.858;2023-05-07T12:50:15;27.90;47.20
16823;DHT22;8528;49.976;11.858;2023-05-07T12:52:47;29.50;45.10
16823;DHT22;8528;49.976;11.858;2023-05-07T12:55:15;29.40;45.50
16823;DHT22;8528;49.976;11.858;2023-05-07T12:57:47;28.30;46.50
16823;DHT22;8528;49.976;11.858;2023-05-07T13:00:14;27.80;48.00
16823;DHT22;8528;49.976;11.858;2023-05-07T13:02:42;27.80;48.50
16823;DHT22;8528;49.976;11.858;2023-05-07T13:05:12;28.40;48.20
16823;DHT22;8528;49.976;11.858;2023-05-07T13:07:39;28.00;49.20
16823;DHT22;8528;49.976;11.858;2023-05-07T13:10:07;27.70;50.50
16823;DHT22;8528;49.976;11.858;2023-05-07T13:12:47;27.70;49.90
16823;DHT22;8528;49.976;11.858;2023-05-07T13:15:14;27.50;49.70
16823;DHT22;8528;49.976;11.858;2023-05-07T13:17:40;27.00;50.40
16823;DHT22;8528;49.976;11.858;2023-05-07T13:20:09;26.00;51.40
16823;DHT22;8528;49.976;11.858;2023-05-07T13:22:37;25.40;53.80
16823;DHT22;8528;49.976;11.858;2023-05-07T13:25:04;24.70;54.90
16823;DHT22;8528;49.976;11.858;2023-05-07T13:27:31;24.30;57.00
16823;DHT22;8528;49.976;11.858;2023-05-07T13:29:58;24.10;57.20
16823;DHT22;8528;49.976;11.858;2023-05-07T13:32:24;23.50;57.10
16823;DHT22;8528;49.976;11.858;2023-05-07T13:34:51;23.20;59.20
16823;DHT22;8528;49.976;11.858;2023-05-07T13:37:18;23.40;58.80
16823;DHT22;8528;49.976;11.858;2023-05-07T13:39:45;23.50;58.80
16823;DHT22;8528;49.976;11.858;2023-05-07T13:42:12;23.60;58.80
16823;DHT22;8528;49.976;11.858;2023-05-07T13:44:39;23.60;59.10
16823;DHT22;8528;49.976;11.858;2023-05-07T13:47:08;23.60;60.00
16823;DHT22;8528;49.976;11.858;2023-05-07T13:49:35;23.30;58.50
16823;DHT22;8528;49.976;11.858;2023-05-07T13:52:03;22.50;59.50
16823;DHT22;8528;49.976;11.858;2023-05-07T13:54:30;21.40;62.10
16823;DHT22;8528;49.976;11.858;2023-05-07T13:56:57;20.90;64.00
16823;DHT22;8528;49.976;11.858;2023-05-07T13:59:24;20.70;64.80
16823;DHT22;8528;49.976;11.858;2023-05-07T14:01:51;20.80;64.50
16823;DHT22;8528;49.976;11.858;2023-05-07T14:04:17;21.00;64.40
16823;DHT22;8528;49.976;11.858;2023-05-07T14:06:44;21.10;64.50
16823;DHT22;8528;49.976;11.858;2023-05-07T14:09:11;21.10;64.60
16823;DHT22;8528;49.976;11.858;2023-05-07T14:11:39;21.10;63.40
16823;DHT22;8528;49.976;11.858;2023-05-07T14:14:06;20.80;64.50
16823;DHT22;8528;49.976;11.858;2023-05-07T14:16:33;20.90;65.10
16823;DHT22;8528;49.976;11.858;2023-05-07T14:19:00;21.40;64.00
16823;DHT22;8528;49.976;11.858;2023-05-07T14:21:27;21.70;63.10
16823;DHT22;8528;49.976;11.858;2023-05-07T14:23:53;21.70;61.70
16823;DHT22;8528;49.976;11.858;2023-05-07T14:26:20;21.40;61.30
16823;DHT22;8528;49.976;11.858;2023-05-07T14:28:47;21.60;61.90
16823;DHT22;8528;49.976;11.858;2023-05-07T14:31:14;21.60;63.40
16823;DHT22;8528;49.976;11.858;2023-05-07T14:33:43;21.00;63.40
16823;DHT22;8528;49.976;11.858;2023-05-07T14:36:09;20.70;64.20
16823;DHT22;8528;49.976;11.858;2023-05-07T14:38:36;20.50;65.70
16823;DHT22;8528;49.976;11.858;2023-05-07T14:41:03;20.20;66.00
16823;DHT22;8528;49.976;11.858;2023-05-07T14:43:30;19.90;68.00
16823;DHT22;8528;49.976;11.858;2023-05-07T14:45:56;19.90;66.40
16823;DHT22;8528;49.976;11.858;2023-05-07T14:48:23;20.10;67.70
16823;DHT22;8528;49.976;11.858;2023-05-07T14:50:50;20.00;68.10
16823;DHT22;8528;49.976;11.858;2023-05-07T14:53:17;20.20;67.90
16823;DHT22;8528;49.976;11.858;2023-05-07T14:55:44;20.50;66.90
16823;DHT22;8528;49.976;11.858;2023-05-07T14:58:11;20.70;64.70
16823;DHT22;8528;49.976;11.858;2023-05-07T15:00:38;20.80;63.90
16823;DHT22;8528;49.976;11.858;2023-05-07T15:03:09;20.60;64.30
16823;DHT22;8528;49.976;11.858;2023-05-07T15:05:38;20.60;65.50
16823;DHT22;8528;49.976;11.858;2023-05-07T15:08:05;20.60;66.80
16823;DHT22;8528;49.976;11.858;2023-05-07T15:10:35;20.70;65.50
16823;DHT22;8528;49.976;11.858;2023-05-07T15:13:07;20.70;65.70
16823;DHT22;8528;49.976;11.858;2023-05-07T15:15:36;20.60;65.30
16823;DHT22;8528;49.976;11.858;2023-05-07T15:18:04;20.70;65.50
16823;DHT22;8528;49.976;11.858;2023-05-07T15:20:46;20.50;66.00
16823;DHT22;8528;49.976;11.858;2023-05-07T15:23:49;20.30;66.60
16823;DHT22;8528;49.976;11.858;2023-05-07T15:26:26;20.10;67.40
16823;DHT22;8528;49.976;11.858;2023-05-07T15:28:53;19.70;68.70
16823;DHT22;8528;49.976;11.858;2023-05-07T15:31:22;19.50;70.50
16823;DHT22;8528;49.976;11.858;2023-05-07T15:33:50;19.50;71.30
16823;DHT22;8528;49.976;11.858;2023-05-07T15:36:26;19.60;71.10
16823;DHT22;8528;49.976;11.858;2023-05-07T15:38:53;19.50;70.30
16823;DHT22;8528;49.976;11.858;2023-05-07T15:41:41;19.50;71.20
16823;DHT22;8528;49.976;11.858;2023-05-07T15:44:10;19.20;71.80
16823;DHT22;8528;49.976;11.858;2023-05-07T15:46:44;19.10;72.50
16823;DHT22;8528;49.976;11.858;2023-05-07T15:49:24;19.00;73.30
16823;DHT22;8528;49.976;11.858;2023-05-07T15:51:51;18.90;74.20
16823;DHT22;8528;49.976;11.858;2023-05-07T15:54:18;18.80;74.70
16823;DHT22;8528;49.976;11.858;2023-05-07T15:56:46;18.70;74.40
16823;DHT22;8528;49.976;11.858;2023-05-07T15:59:14;18.70;74.70
16823;DHT22;8528;49.976;11.858;2023-05-07T16:01:42;18.60;75.40
16823;DHT22;8528;49.976;11.858;2023-05-07T16:04:09;18.50;76.50
16823;DHT22;8528;49.976;11.858;2023-05-07T16:06:36;18.40;77.00
16823;DHT22;8528;49.976;11.858;2023-05-07T16:09:09;18.30;77.40